sensor_id;sensor_type;location;lat;lon;timestamp;pressure;altitude;pressure_sealevel;temperature;humidity
79028;BME280;68427;48.476;19.102;2023-07-20T00:01:39;96834.78;;;18.34;74.40
79028;BME280;68427;48.476;19.102;2023-07-20T00:04:11;96826.28;;;18.37;73.90
79028;BME280;68427;48.476;19.102;2023-07-20T00:06:38;96830.28;;;18.40;74.36
79028;BME280;68427;48.476;19.102;2023-07-20T00:09:08;96832.13;;;18.39;74.45
79028;BME280;68427;48.476;19.102;2023-07-20T00:11:38;96828.94;;;18.37;75.00
79028;BME280;68427;48.476;19.102;2023-07-20T00:14:06;96823.66;;;18.37;74.27
79028;BME280;68427;48.476;19.102;2023-07-20T00:16:35;96820.75;;;18.39;74.24
79028;BME280;68427;48.476;19.102;2023-07-20T00:19:03;96826.53;;;18.35;74.50
79028;BME280;68427;48.476;19.102;2023-07-20T00:21:31;96824.16;;;18.34;74.75
79028;BME280;68427;48.476;19.102;2023-07-20T00:23:58;96826.50;;;18.25;74.96
79028;BME280;68427;48.476;19.102;2023-07-20T00:26:26;96833.69;;;18.25;75.09
79028;BME280;68427;48.476;19.102;2023-07-20T00:28:54;96851.69;;;18.18;75.38
79028;BME280;68427;48.476;19.102;2023-07-20T00:31:20;96845.31;;;18.13;75.65
79028;BME280;68427;48.476;19.102;2023-07-20T00:33:47;96835.47;;;18.09;76.17
79028;BME280;68427;48.476;19.102;2023-07-20T00:36:15;96834.94;;;18.07;77.04
79028;BME280;68427;48.476;19.102;2023-07-20T00:38:43;96847.13;;;18.08;77.04
79028;BME280;68427;48.476;19.102;2023-07-20T00:41:10;96840.50;;;18.10;76.04
79028;BME280;68427;48.476;19.102;2023-07-20T00:43:38;96849.78;;;18.08;76.08
79028;BME280;68427;48.476;19.102;2023-07-20T00:46:07;96851.63;;;18.02;76.05
79028;BME280;68427;48.476;19.102;2023-07-20T00:48:34;96867.25;;;17.99;76.03
79028;BME280;68427;48.476;19.102;2023-07-20T00:51:02;96853.44;;;17.97;75.94
79028;BME280;68427;48.476;19.102;2023-07-20T00:53:29;96862.72;;;17.94;76.54
79028;BME280;68427;48.476;19.102;2023-07-20T00:55:57;96861.63;;;17.90;77.05
79028;BME280;68427;48.476;19.102;2023-07-20T00:58:24;96855.50;;;17.84;77.74
79028;BME280;68427;48.476;19.102;2023-07-20T01:00:53;96831.06;;;17.77;77.73
79028;BME280;68427;48.476;19.102;2023-07-20T01:03:21;96839.81;;;17.78;77.00
79028;BME280;68427;48.476;19.102;2023-07-20T01:05:51;96826.31;;;17.79;76.27
79028;BME280;68427;48.476;19.102;2023-07-20T01:08:27;96833.00;;;17.87;76.85
79028;BME280;68427;48.476;19.102;2023-07-20T01:11:06;96829.03;;;17.89;76.52
79028;BME280;68427;48.476;19.102;2023-07-20T01:13:33;96829.25;;;17.83;76.26
79028;BME280;68427;48.476;19.102;2023-07-20T01:16:03;96825.81;;;17.82;76.33
79028;BME280;68427;48.476;19.102;2023-07-20T01:18:30;96825.28;;;17.80;76.34
79028;BME280;68427;48.476;19.102;2023-07-20T01:21:00;96833.44;;;17.74;76.81
79028;BME280;68427;48.476;19.102;2023-07-20T01:24:00;96838.19;;;17.71;76.76
79028;BME280;68427;48.476;19.102;2023-07-20T01:26:45;96840.81;;;17.66;76.71
79028;BME280;68427;48.476;19.102;2023-07-20T01:29:26;96839.19;;;17.65;76.97
79028;BME280;68427;48.476;19.102;2023-07-20T01:32:04;96825.94;;;17.60;76.75
79028;BME280;68427;48.476;19.102;2023-07-20T01:34:34;96836.00;;;17.58;76.53
79028;BME280;68427;48.476;19.102;2023-07-20T01:37:03;96823.53;;;17.54;76.43
79028;BME280;68427;48.476;19.102;2023-07-20T01:39:32;96825.38;;;17.53;77.20
79028;BME280;68427;48.476;19.102;2023-07-20T01:42:00;96826.69;;;17.51;77.35
79028;BME280;68427;48.476;19.102;2023-07-20T01:44:28;96832.50;;;17.53;77.43
79028;BME280;68427;48.476;19.102;2023-07-20T01:46:56;96817.44;;;17.53;77.27
79028;BME280;68427;48.476;19.102;2023-07-20T01:49:24;96825.06;;;17.49;76.67
79028;BME280;68427;48.476;19.102;2023-07-20T01:51:52;96828.78;;;17.48;76.91
79028;BME280;68427;48.476;19.102;2023-07-20T01:54:19;96821.06;;;17.42;77.43
79028;BME280;68427;48.476;19.102;2023-07-20T01:56:47;96818.66;;;17.40;77.13
79028;BME280;68427;48.476;19.102;2023-07-20T01:59:15;96822.38;;;17.39;77.53
79028;BME280;68427;48.476;19.102;2023-07-20T02:01:42;96826.06;;;17.38;77.27
79028;BME280;68427;48.476;19.102;2023-07-20T02:04:09;96832.38;;;17.32;77.73
79028;BME280;68427;48.476;19.102;2023-07-20T02:06:38;96827.06;;;17.32;77.38
79028;BME280;68427;48.476;19.102;2023-07-20T02:09:05;96825.97;;;17.23;77.99
79028;BME280;68427;48.476;19.102;2023-07-20T02:11:32;96821.06;;;17.04;78.67
79028;BME280;68427;48.476;19.102;2023-07-20T02:13:58;96827.84;;;16.95;78.56
79028;BME280;68427;48.476;19.102;2023-07-20T02:16:25;96826.25;;;16.94;78.70
79028;BME280;68427;48.476;19.102;2023-07-20T02:18:51;96830.75;;;16.94;78.78
79028;BME280;68427;48.476;19.102;2023-07-20T02:21:18;96827.81;;;16.90;78.66
79028;BME280;68427;48.476;19.102;2023-07-20T02:23:45;96837.03;;;16.88;78.62
79028;BME280;68427;48.476;19.102;2023-07-20T02:26:11;96836.75;;;16.84;78.52
79028;BME280;68427;48.476;19.102;2023-07-20T02:28:36;96853.13;;;16.81;78.81
79028;BME280;68427;48.476;19.102;2023-07-20T02:31:02;96854.16;;;16.80;78.62
79028;BME280;68427;48.476;19.102;2023-07-20T02:33:29;96852.00;;;16.77;78.62
79028;BME280;68427;48.476;19.102;2023-07-20T02:35:54;96857.28;;;16.77;78.32
79028;BME280;68427;48.476;19.102;2023-07-20T02:38:20;96848.81;;;16.75;77.93
79028;BME280;68427;48.476;19.102;2023-07-20T02:40:47;96853.00;;;16.71;78.48
79028;BME280;68427;48.476;19.102;2023-07-20T02:43:13;96859.59;;;16.68;78.12
79028;BME280;68427;48.476;19.102;2023-07-20T02:45:40;96859.84;;;16.67;78.42
79028;BME280;68427;48.476;19.102;2023-07-20T02:48:06;96863.78;;;16.64;78.39
79028;BME280;68427;48.476;19.102;2023-07-20T02:50:33;96858.69;;;16.57;78.86
79028;BME280;68427;48.476;19.102;2023-07-20T02:53:00;96853.84;;;16.49;79.58
79028;BME280;68427;48.476;19.102;2023-07-20T02:55:25;96860.97;;;16.49;79.34
79028;BME280;68427;48.476;19.102;2023-07-20T02:57:53;96869.13;;;16.47;79.25
79028;BME280;68427;48.476;19.102;2023-07-20T03:00:19;96874.69;;;16.46;79.25
79028;BME280;68427;48.476;19.102;2023-07-20T03:02:45;96872.22;;;16.39;79.54
79028;BME280;68427;48.476;19.102;2023-07-20T03:05:14;96882.97;;;16.32;79.76
79028;BME280;68427;48.476;19.102;2023-07-20T03:07:43;96882.44;;;16.30;79.88
79028;BME280;68427;48.476;19.102;2023-07-20T03:10:11;96886.78;;;16.19;80.25
79028;BME280;68427;48.476;19.102;2023-07-20T03:12:39;96897.56;;;16.13;80.10
79028;BME280;68427;48.476;19.102;2023-07-20T03:15:09;96892.75;;;16.10;80.52
79028;BME280;68427;48.476;19.102;2023-07-20T03:17:36;96885.88;;;16.09;80.14
79028;BME280;68427;48.476;19.102;2023-07-20T03:20:03;96887.72;;;16.08;80.25
79028;BME280;68427;48.476;19.102;2023-07-20T03:22:32;96892.75;;;16.10;80.41
79028;BME280;68427;48.476;19.102;2023-07-20T03:24:59;96888.53;;;16.09;80.55
79028;BME280;68427;48.476;19.102;2023-07-20T03:27:26;96890.66;;;16.12;79.99
79028;BME280;68427;48.476;19.102;2023-07-20T03:29:55;96891.78;;;16.16;80.30
79028;BME280;68427;48.476;19.102;2023-07-20T03:32:24;96896.81;;;16.17;79.45
79028;BME280;68427;48.476;19.102;2023-07-20T03:34:51;96907.47;;;16.23;79.85
79028;BME280;68427;48.476;19.102;2023-07-20T03:37:18;96899.34;;;16.29;79.25
79028;BME280;68427;48.476;19.102;2023-07-20T03:39:44;96904.63;;;16.29;79.44
79028;BME280;68427;48.476;19.102;2023-07-20T03:42:10;96905.91;;;16.27;79.35
79028;BME280;68427;48.476;19.102;2023-07-20T03:44:36;96904.56;;;16.24;79.81
79028;BME280;68427;48.476;19.102;2023-07-20T03:47:02;96915.69;;;16.26;80.26
79028;BME280;68427;48.476;19.102;2023-07-20T03:49:31;96917.53;;;16.26;79.76
79028;BME280;68427;48.476;19.102;2023-07-20T03:51:57;96914.41;;;16.29;79.32
79028;BME280;68427;48.476;19.102;2023-07-20T03:54:22;96917.91;;;16.34;79.73
79028;BME280;68427;48.476;19.102;2023-07-20T03:56:48;96920.03;;;16.37;79.15
79028;BME280;68427;48.476;19.102;2023-07-20T03:59:14;96915.31;;;16.39;79.23
79028;BME280;68427;48.476;19.102;2023-07-20T04:01:40;96929.53;;;16.33;79.71
79028;BME280;68427;48.476;19.102;2023-07-20T04:04:07;96930.81;;;16.31;79.82
79028;BME280;68427;48.476;19.102;2023-07-20T04:06:34;96934.03;;;16.33;80.23
79028;BME280;68427;48.476;19.102;2023-07-20T04:09:00;96932.22;;;16.38;80.33
79028;BME280;68427;48.476;19.102;2023-07-20T04:11:25;96934.16;;;16.43;80.60
79028;BME280;68427;48.476;19.102;2023-07-20T04:13:51;96929.31;;;16.40;80.49
79028;BME280;68427;48.476;19.102;2023-07-20T04:16:17;96925.22;;;16.49;80.27
79028;BME280;68427;48.476;19.102;2023-07-20T04:18:43;96922.97;;;16.58;79.96
79028;BME280;68427;48.476;19.102;2023-07-20T04:21:08;96921.72;;;16.66;79.24
79028;BME280;68427;48.476;19.102;2023-07-20T04:23:36;96919.41;;;16.74;79.29
79028;BME280;68427;48.476;19.102;2023-07-20T04:26:02;96910.53;;;16.80;79.45
79028;BME280;68427;48.476;19.102;2023-07-20T04:28:28;96908.47;;;16.88;79.09
79028;BME280;68427;48.476;19.102;2023-07-20T04:30:53;96905.63;;;16.94;78.88
79028;BME280;68427;48.476;19.102;2023-07-20T04:33:19;96905.44;;;17.01;79.62
79028;BME280;68427;48.476;19.102;2023-07-20T04:35:47;96908.59;;;16.98;79.76
79028;BME280;68427;48.476;19.102;2023-07-20T04:38:13;96906.19;;;16.96;80.49
79028;BME280;68427;48.476;19.102;2023-07-20T04:40:42;96915.22;;;17.00;79.90
79028;BME280;68427;48.476;19.102;2023-07-20T04:43:08;96914.72;;;17.03;79.90
79028;BME280;68427;48.476;19.102;2023-07-20T04:45:34;96914.72;;;17.03;80.39
79028;BME280;68427;48.476;19.102;2023-07-20T04:48:00;96914.22;;;17.06;80.32
79028;BME280;68427;48.476;19.102;2023-07-20T04:50:25;96917.66;;;17.07;79.81
79028;BME280;68427;48.476;19.102;2023-07-20T04:52:52;96917.16;;;17.10;79.99
79028;BME280;68427;48.476;19.102;2023-07-20T04:55:18;96928.34;;;17.17;79.92
79028;BME280;68427;48.476;19.102;2023-07-20T04:57:45;96922.34;;;17.27;79.62
79028;BME280;68427;48.476;19.102;2023-07-20T05:00:12;96928.25;;;17.39;79.01
79028;BME280;68427;48.476;19.102;2023-07-20T05:02:38;96915.38;;;17.48;79.21
79028;BME280;68427;48.476;19.102;2023-07-20T05:05:04;96921.56;;;17.64;78.12
79028;BME280;68427;48.476;19.102;2023-07-20T05:07:33;96918.47;;;17.77;78.67
79028;BME280;68427;48.476;19.102;2023-07-20T05:09:58;96922.03;;;17.93;78.25
79028;BME280;68427;48.476;19.102;2023-07-20T05:12:24;96924.84;;;18.13;77.83
79028;BME280;68427;48.476;19.102;2023-07-20T05:14:51;96925.72;;;18.34;76.74
79028;BME280;68427;48.476;19.102;2023-07-20T05:17:17;96914.41;;;18.60;76.05
79028;BME280;68427;48.476;19.102;2023-07-20T05:19:43;96920.09;;;18.89;75.26
79028;BME280;68427;48.476;19.102;2023-07-20T05:22:09;96916.94;;;19.12;73.21
79028;BME280;68427;48.476;19.102;2023-07-20T05:24:34;96915.09;;;19.38;72.86
79028;BME280;68427;48.476;19.102;2023-07-20T05:27:00;96918.06;;;19.68;72.04
79028;BME280;68427;48.476;19.102;2023-07-20T05:29:26;96915.09;;;19.90;71.77
79028;BME280;68427;48.476;19.102;2023-07-20T05:31:53;96918.47;;;20.16;70.58
79028;BME280;68427;48.476;19.102;2023-07-20T05:34:18;96908.78;;;20.50;68.75
79028;BME280;68427;48.476;19.102;2023-07-20T05:36:44;96912.44;;;20.75;67.38
79028;BME280;68427;48.476;19.102;2023-07-20T05:39:10;96908.78;;;21.05;66.41
79028;BME280;68427;48.476;19.102;2023-07-20T05:41:35;96905.41;;;21.29;65.02
79028;BME280;68427;48.476;19.102;2023-07-20T05:44:01;96912.38;;;21.59;65.44
79028;BME280;68427;48.476;19.102;2023-07-20T05:46:27;96919.03;;;21.91;63.92
79028;BME280;68427;48.476;19.102;2023-07-20T05:48:54;96908.25;;;22.30;63.36
79028;BME280;68427;48.476;19.102;2023-07-20T05:51:19;96914.22;;;22.65;61.75
79028;BME280;68427;48.476;19.102;2023-07-20T05:53:45;96915.78;;;23.09;60.33
79028;BME280;68427;48.476;19.102;2023-07-20T05:56:13;96913.91;;;23.42;58.61
79028;BME280;68427;48.476;19.102;2023-07-20T05:58:39;96908.19;;;23.68;58.22
79028;BME280;68427;48.476;19.102;2023-07-20T06:01:05;96912.03;;;24.08;58.03
79028;BME280;68427;48.476;19.102;2023-07-20T06:03:31;96913.22;;;24.44;56.07
79028;BME280;68427;48.476;19.102;2023-07-20T06:06:00;96912.97;;;24.82;53.93
79028;BME280;68427;48.476;19.102;2023-07-20T06:08:27;96918.81;;;25.34;52.57
79028;BME280;68427;48.476;19.102;2023-07-20T06:10:52;96924.53;;;25.86;50.87
79028;BME280;68427;48.476;19.102;2023-07-20T06:13:18;96927.53;;;26.24;49.73
79028;BME280;68427;48.476;19.102;2023-07-20T06:15:44;96931.63;;;26.70;48.54
79028;BME280;68427;48.476;19.102;2023-07-20T06:18:09;96940.19;;;26.64;48.05
79028;BME280;68427;48.476;19.102;2023-07-20T06:20:35;96938.34;;;27.25;47.56
79028;BME280;68427;48.476;19.102;2023-07-20T06:23:02;96930.41;;;27.72;45.91
79028;BME280;68427;48.476;19.102;2023-07-20T06:25:28;96928.97;;;27.75;45.67
79028;BME280;68427;48.476;19.102;2023-07-20T06:27:55;96920.22;;;27.95;44.52
79028;BME280;68427;48.476;19.102;2023-07-20T06:30:21;96916.88;;;28.07;44.82
79028;BME280;68427;48.476;19.102;2023-07-20T06:32:47;96935.72;;;28.46;43.85
79028;BME280;68427;48.476;19.102;2023-07-20T06:35:13;96922.31;;;28.88;43.81
79028;BME280;68427;48.476;19.102;2023-07-20T06:37:39;96921.03;;;29.15;39.24
79028;BME280;68427;48.476;19.102;2023-07-20T06:40:07;96914.84;;;29.68;38.63
79028;BME280;68427;48.476;19.102;2023-07-20T06:42:34;96920.88;;;29.99;38.94
79028;BME280;68427;48.476;19.102;2023-07-20T06:45:00;96909.88;;;30.16;37.84
79028;BME280;68427;48.476;19.102;2023-07-20T06:47:26;96915.53;;;29.65;38.16
79028;BME280;68427;48.476;19.102;2023-07-20T06:49:52;96913.06;;;30.30;37.62
79028;BME280;68427;48.476;19.102;2023-07-20T06:52:17;96912.22;;;30.79;35.36
79028;BME280;68427;48.476;19.102;2023-07-20T06:54:43;96912.66;;;30.93;34.45
79028;BME280;68427;48.476;19.102;2023-07-20T06:57:10;96907.66;;;30.55;32.07
79028;BME280;68427;48.476;19.102;2023-07-20T06:59:36;96898.84;;;30.83;32.14
79028;BME280;68427;48.476;19.102;2023-07-20T07:02:01;96907.81;;;30.87;30.35
79028;BME280;68427;48.476;19.102;2023-07-20T07:04:27;96904.31;;;31.39;29.79
79028;BME280;68427;48.476;19.102;2023-07-20T07:06:53;96901.94;;;31.66;29.74
79028;BME280;68427;48.476;19.102;2023-07-20T07:09:19;96909.50;;;32.04;28.94
79028;BME280;68427;48.476;19.102;2023-07-20T07:11:46;96905.91;;;32.16;27.48
79028;BME280;68427;48.476;19.102;2023-07-20T07:14:13;96913.00;;;32.20;28.02
79028;BME280;68427;48.476;19.102;2023-07-20T07:16:39;96907.78;;;32.98;27.35
79028;BME280;68427;48.476;19.102;2023-07-20T07:19:05;96913.53;;;33.12;27.52
79028;BME280;68427;48.476;19.102;2023-07-20T07:21:31;96916.72;;;33.38;26.11
79028;BME280;68427;48.476;19.102;2023-07-20T07:23:56;96914.81;;;33.81;26.36
79028;BME280;68427;48.476;19.102;2023-07-20T07:26:23;96917.00;;;33.71;25.70
79028;BME280;68427;48.476;19.102;2023-07-20T07:28:49;96920.78;;;33.47;24.83
79028;BME280;68427;48.476;19.102;2023-07-20T07:31:16;96916.84;;;33.84;25.02
79028;BME280;68427;48.476;19.102;2023-07-20T07:33:42;96919.09;;;34.01;25.28
79028;BME280;68427;48.476;19.102;2023-07-20T07:36:08;96923.78;;;33.81;24.88
79028;BME280;68427;48.476;19.102;2023-07-20T07:38:34;96923.00;;;34.27;24.85
79028;BME280;68427;48.476;19.102;2023-07-20T07:40:59;96915.91;;;34.45;25.14
79028;BME280;68427;48.476;19.102;2023-07-20T07:43:26;96922.44;;;34.94;24.67
79028;BME280;68427;48.476;19.102;2023-07-20T07:45:53;96923.06;;;35.44;22.44
79028;BME280;68427;48.476;19.102;2023-07-20T07:48:21;96930.50;;;35.47;23.54
79028;BME280;68427;48.476;19.102;2023-07-20T07:50:47;96931.84;;;35.60;23.47
79028;BME280;68427;48.476;19.102;2023-07-20T07:53:13;96932.41;;;35.77;23.77
79028;BME280;68427;48.476;19.102;2023-07-20T07:55:39;96923.59;;;36.39;22.68
79028;BME280;68427;48.476;19.102;2023-07-20T07:58:05;96932.66;;;36.53;22.40
79028;BME280;68427;48.476;19.102;2023-07-20T08:00:30;96940.59;;;36.66;21.89
79028;BME280;68427;48.476;19.102;2023-07-20T08:02:56;96951.56;;;36.25;21.68
79028;BME280;68427;48.476;19.102;2023-07-20T08:05:23;96945.72;;;36.74;21.61
79028;BME280;68427;48.476;19.102;2023-07-20T08:07:49;96946.44;;;37.41;21.45
79028;BME280;68427;48.476;19.102;2023-07-20T08:10:16;96944.97;;;36.29;22.17
79028;BME280;68427;48.476;19.102;2023-07-20T08:12:42;96945.63;;;35.75;23.11
79028;BME280;68427;48.476;19.102;2023-07-20T08:15:11;96944.56;;;34.62;23.73
79028;BME280;68427;48.476;19.102;2023-07-20T08:17:37;96937.22;;;34.93;23.37
79028;BME280;68427;48.476;19.102;2023-07-20T08:20:09;96941.97;;;34.46;23.45
79028;BME280;68427;48.476;19.102;2023-07-20T08:22:39;96944.38;;;34.78;23.36
79028;BME280;68427;48.476;19.102;2023-07-20T08:25:07;96944.22;;;34.94;23.66
79028;BME280;68427;48.476;19.102;2023-07-20T08:27:33;96937.09;;;34.85;24.11
79028;BME280;68427;48.476;19.102;2023-07-20T08:29:59;96947.56;;;35.10;23.22
79028;BME280;68427;48.476;19.102;2023-07-20T08:32:25;96953.56;;;35.90;23.08
79028;BME280;68427;48.476;19.102;2023-07-20T08:34:54;96950.88;;;36.39;21.53
79028;BME280;68427;48.476;19.102;2023-07-20T08:37:20;96963.28;;;36.77;21.55
79028;BME280;68427;48.476;19.102;2023-07-20T08:39:51;96942.41;;;37.10;20.64
79028;BME280;68427;48.476;19.102;2023-07-20T08:42:17;96948.94;;;37.96;19.24
79028;BME280;68427;48.476;19.102;2023-07-20T08:44:44;96959.28;;;37.33;20.26
79028;BME280;68427;48.476;19.102;2023-07-20T08:47:12;96959.44;;;37.66;19.66
79028;BME280;68427;48.476;19.102;2023-07-20T08:49:43;96949.72;;;37.97;19.75
79028;BME280;68427;48.476;19.102;2023-07-20T08:52:09;96941.44;;;37.57;19.98
79028;BME280;68427;48.476;19.102;2023-07-20T08:54:36;96955.50;;;37.59;20.49
79028;BME280;68427;48.476;19.102;2023-07-20T08:57:05;96953.22;;;37.94;19.94
79028;BME280;68427;48.476;19.102;2023-07-20T08:59:32;96955.59;;;38.35;19.32
79028;BME280;68427;48.476;19.102;2023-07-20T09:02:01;96960.28;;;38.99;19.13
79028;BME280;68427;48.476;19.102;2023-07-20T09:04:27;96966.13;;;38.97;19.80
79028;BME280;68427;48.476;19.102;2023-07-20T09:06:53;96963.03;;;38.27;19.26
79028;BME280;68427;48.476;19.102;2023-07-20T09:09:19;96959.94;;;38.18;19.15
79028;BME280;68427;48.476;19.102;2023-07-20T09:11:47;96964.59;;;38.85;18.81
79028;BME280;68427;48.476;19.102;2023-07-20T09:14:14;96959.94;;;38.29;19.60
79028;BME280;68427;48.476;19.102;2023-07-20T09:16:49;96957.81;;;39.33;18.17
79028;BME280;68427;48.476;19.102;2023-07-20T09:19:15;96965.75;;;38.99;18.42
79028;BME280;68427;48.476;19.102;2023-07-20T09:21:44;96966.94;;;38.98;18.60
79028;BME280;68427;48.476;19.102;2023-07-20T09:24:10;96950.88;;;38.93;18.30
79028;BME280;68427;48.476;19.102;2023-07-20T09:26:40;96950.00;;;39.24;18.15
79028;BME280;68427;48.476;19.102;2023-07-20T09:29:07;96947.03;;;38.36;19.26
79028;BME280;68427;48.476;19.102;2023-07-20T09:31:36;96945.28;;;37.46;19.74
79028;BME280;68427;48.476;19.102;2023-07-20T09:34:02;96952.88;;;38.63;19.42
79028;BME280;68427;48.476;19.102;2023-07-20T09:36:29;96951.25;;;37.80;19.13
79028;BME280;68427;48.476;19.102;2023-07-20T09:38:58;96954.44;;;38.29;17.67
79028;BME280;68427;48.476;19.102;2023-07-20T09:41:25;96958.94;;;37.49;18.14
79028;BME280;68427;48.476;19.102;2023-07-20T09:43:53;96971.09;;;35.25;20.86
79028;BME280;68427;48.476;19.102;2023-07-20T09:46:20;96977.25;;;33.96;23.26
79028;BME280;68427;48.476;19.102;2023-07-20T09:48:53;96981.78;;;32.47;25.30
79028;BME280;68427;48.476;19.102;2023-07-20T09:51:23;96977.16;;;33.15;24.92
79028;BME280;68427;48.476;19.102;2023-07-20T09:53:53;96962.88;;;34.65;22.29
79028;BME280;68427;48.476;19.102;2023-07-20T09:56:21;96971.50;;;34.71;22.96
79028;BME280;68427;48.476;19.102;2023-07-20T09:58:49;96968.75;;;33.20;23.18
79028;BME280;68427;48.476;19.102;2023-07-20T10:01:19;96966.31;;;32.64;24.17
79028;BME280;68427;48.476;19.102;2023-07-20T10:03:47;96967.34;;;34.54;22.35
79028;BME280;68427;48.476;19.102;2023-07-20T10:06:24;96960.53;;;35.84;20.70
79028;BME280;68427;48.476;19.102;2023-07-20T10:08:53;96962.09;;;35.52;21.15
79028;BME280;68427;48.476;19.102;2023-07-20T10:11:21;96964.72;;;36.60;19.09
79028;BME280;68427;48.476;19.102;2023-07-20T10:13:49;96962.84;;;37.37;19.13
79028;BME280;68427;48.476;19.102;2023-07-20T10:16:22;96967.63;;;37.66;18.70
79028;BME280;68427;48.476;19.102;2023-07-20T10:18:54;96958.75;;;38.08;17.78
79028;BME280;68427;48.476;19.102;2023-07-20T10:21:23;96973.13;;;36.92;18.67
79028;BME280;68427;48.476;19.102;2023-07-20T10:23:50;96955.44;;;37.45;17.77
79028;BME280;68427;48.476;19.102;2023-07-20T10:26:15;96958.31;;;37.95;17.65
79028;BME280;68427;48.476;19.102;2023-07-20T10:28:41;96965.09;;;36.59;18.48
79028;BME280;68427;48.476;19.102;2023-07-20T10:31:09;96962.16;;;36.85;18.75
79028;BME280;68427;48.476;19.102;2023-07-20T10:33:36;96967.22;;;36.83;17.62
79028;BME280;68427;48.476;19.102;2023-07-20T10:36:05;96954.69;;;36.79;19.23
79028;BME280;68427;48.476;19.102;2023-07-20T10:38:43;96952.69;;;37.38;18.16
79028;BME280;68427;48.476;19.102;2023-07-20T10:41:18;96959.09;;;36.01;18.75
79028;BME280;68427;48.476;19.102;2023-07-20T10:43:45;96966.94;;;36.03;19.49
79028;BME280;68427;48.476;19.102;2023-07-20T10:46:12;96962.25;;;35.05;21.01
79028;BME280;68427;48.476;19.102;2023-07-20T10:49:00;96960.47;;;34.37;20.91
79028;BME280;68427;48.476;19.102;2023-07-20T10:51:28;96967.81;;;33.12;22.75
79028;BME280;68427;48.476;19.102;2023-07-20T10:53:56;96976.28;;;32.44;22.14
79028;BME280;68427;48.476;19.102;2023-07-20T10:56:26;96975.72;;;31.91;22.99
79028;BME280;68427;48.476;19.102;2023-07-20T10:59:17;96977.44;;;31.55;22.75
79028;BME280;68427;48.476;19.102;2023-07-20T11:01:47;96982.72;;;31.23;24.09
79028;BME280;68427;48.476;19.102;2023-07-20T11:04:17;96973.22;;;32.77;22.17
79028;BME280;68427;48.476;19.102;2023-07-20T11:06:46;96974.84;;;34.37;22.00
79028;BME280;68427;48.476;19.102;2023-07-20T11:09:14;96978.13;;;35.94;20.80
79028;BME280;68427;48.476;19.102;2023-07-20T11:11:41;96974.16;;;36.22;20.51
79028;BME280;68427;48.476;19.102;2023-07-20T11:14:08;96967.22;;;35.94;18.42
79028;BME280;68427;48.476;19.102;2023-07-20T11:16:36;96961.69;;;34.16;20.49
79028;BME280;68427;48.476;19.102;2023-07-20T11:19:05;96977.63;;;33.37;22.23
79028;BME280;68427;48.476;19.102;2023-07-20T11:21:35;96967.63;;;32.22;22.37
79028;BME280;68427;48.476;19.102;2023-07-20T11:24:03;96971.84;;;31.76;22.88
79028;BME280;68427;48.476;19.102;2023-07-20T11:26:39;96978.97;;;31.68;24.72
79028;BME280;68427;48.476;19.102;2023-07-20T11:29:05;96972.66;;;31.64;24.35
79028;BME280;68427;48.476;19.102;2023-07-20T11:31:35;96979.88;;;32.64;22.46
79028;BME280;68427;48.476;19.102;2023-07-20T11:34:00;96985.19;;;32.44;22.90
79028;BME280;68427;48.476;19.102;2023-07-20T11:36:26;96984.13;;;32.97;22.56
79028;BME280;68427;48.476;19.102;2023-07-20T11:38:52;96984.16;;;34.13;20.48
79028;BME280;68427;48.476;19.102;2023-07-20T11:41:19;96977.19;;;34.89;21.34
79028;BME280;68427;48.476;19.102;2023-07-20T11:43:47;96978.00;;;34.89;20.20
79028;BME280;68427;48.476;19.102;2023-07-20T11:46:18;96978.25;;;35.07;18.71
79028;BME280;68427;48.476;19.102;2023-07-20T11:48:44;96976.50;;;33.57;19.76
79028;BME280;68427;48.476;19.102;2023-07-20T11:51:14;96983.66;;;32.59;21.65
79028;BME280;68427;48.476;19.102;2023-07-20T11:53:40;96984.41;;;31.96;22.03
79028;BME280;68427;48.476;19.102;2023-07-20T11:56:06;96986.16;;;31.76;22.84
79028;BME280;68427;48.476;19.102;2023-07-20T11:58:32;96983.09;;;32.22;23.73
79028;BME280;68427;48.476;19.102;2023-07-20T12:00:59;96984.66;;;32.86;22.91
79028;BME280;68427;48.476;19.102;2023-07-20T12:03:25;96977.91;;;32.96;22.45
79028;BME280;68427;48.476;19.102;2023-07-20T12:05:51;96980.97;;;33.30;24.01
79028;BME280;68427;48.476;19.102;2023-07-20T12:08:16;96984.31;;;33.59;22.36
79028;BME280;68427;48.476;19.102;2023-07-20T12:10:42;96977.97;;;33.35;22.40
79028;BME280;68427;48.476;19.102;2023-07-20T12:13:10;96968.84;;;33.24;22.00
79028;BME280;68427;48.476;19.102;2023-07-20T12:15:37;96968.28;;;32.99;21.80
79028;BME280;68427;48.476;19.102;2023-07-20T12:18:04;96967.06;;;32.96;21.66
79028;BME280;68427;48.476;19.102;2023-07-20T12:20:32;96967.50;;;32.98;21.09
79028;BME280;68427;48.476;19.102;2023-07-20T12:22:59;96961.75;;;33.39;21.69
79028;BME280;68427;48.476;19.102;2023-07-20T12:25:34;96963.81;;;33.06;21.79
79028;BME280;68427;48.476;19.102;2023-07-20T12:28:02;96973.53;;;32.91;22.17
79028;BME280;68427;48.476;19.102;2023-07-20T12:30:30;96958.25;;;32.83;21.74
79028;BME280;68427;48.476;19.102;2023-07-20T12:32:56;96960.84;;;32.96;21.79
79028;BME280;68427;48.476;19.102;2023-07-20T12:35:23;96976.31;;;33.11;22.88
79028;BME280;68427;48.476;19.102;2023-07-20T12:37:49;96974.16;;;33.20;21.93
79028;BME280;68427;48.476;19.102;2023-07-20T12:40:17;96977.94;;;33.16;22.63
79028;BME280;68427;48.476;19.102;2023-07-20T12:42:42;96960.88;;;33.15;23.31
79028;BME280;68427;48.476;19.102;2023-07-20T12:45:09;96961.03;;;33.42;22.09
79028;BME280;68427;48.476;19.102;2023-07-20T12:47:36;96965.75;;;33.06;21.77
79028;BME280;68427;48.476;19.102;2023-07-20T12:50:02;96966.28;;;32.80;23.00
79028;BME280;68427;48.476;19.102;2023-07-20T12:52:31;96964.59;;;32.56;22.38